sensor_id;sensor_type;location;lat;lon;timestamp;P1;durP1;ratioP1;P2;durP2;ratioP2
9467;SDS011;4772;52.382;9.752;2024-01-06T00:01:37;23.97;;;17.03;;
9467;SDS011;4772;52.382;9.752;2024-01-06T00:04:03;24.20;;;16.30;;
9467;SDS011;4772;52.382;9.752;2024-01-06T00:06:30;24.23;;;17.23;;
9467;SDS011;4772;52.382;9.752;2024-01-06T00:08:56;25.47;;;18.03;;
9467;SDS011;4772;52.382;9.752;2024-01-06T00:11:22;25.63;;;17.40;;
9467;SDS011;4772;52.382;9.752;2024-01-06T00:13:48;25.07;;;17.13;;
9467;SDS011;4772;52.382;9.752;2024-01-06T00:16:17;26.63;;;17.60;;
9467;SDS011;4772;52.382;9.752;2024-01-06T00:18:44;23.83;;;17.77;;
9467;SDS011;4772;52.382;9.752;2024-01-06T00:21:10;24.17;;;17.50;;
9467;SDS011;4772;52.382;9.752;2024-01-06T00:23:36;24.43;;;16.87;;
9467;SDS011;4772;52.382;9.752;2024-01-06T00:26:02;25.33;;;17.60;;
9467;SDS011;4772;52.382;9.752;2024-01-06T00:28:28;26.47;;;18.10;;
9467;SDS011;4772;52.382;9.752;2024-01-06T00:30:54;26.50;;;17.40;;
9467;SDS011;4772;52.382;9.752;2024-01-06T00:33:20;27.77;;;18.57;;
9467;SDS011;4772;52.382;9.752;2024-01-06T00:35:46;23.63;;;17.80;;
9467;SDS011;4772;52.382;9.752;2024-01-06T00:38:12;26.30;;;18.53;;
9467;SDS011;4772;52.382;9.752;2024-01-06T00:40:38;27.77;;;19.57;;
9467;SDS011;4772;52.382;9.752;2024-01-06T00:43:04;31.87;;;19.20;;
9467;SDS011;4772;52.382;9.752;2024-01-06T00:45:30;28.93;;;19.47;;
9467;SDS011;4772;52.382;9.752;2024-01-06T00:47:56;26.17;;;18.77;;
9467;SDS011;4772;52.382;9.752;2024-01-06T00:50:22;29.97;;;18.73;;
9467;SDS011;4772;52.382;9.752;2024-01-06T00:52:48;28.10;;;19.77;;
9467;SDS011;4772;52.382;9.752;2024-01-06T00:55:17;27.20;;;18.70;;
9467;SDS011;4772;52.382;9.752;2024-01-06T00:57:43;25.27;;;17.67;;
9467;SDS011;4772;52.382;9.752;2024-01-06T01:00:09;30.23;;;19.70;;
9467;SDS011;4772;52.382;9.752;2024-01-06T01:02:35;25.70;;;16.97;;
9467;SDS011;4772;52.382;9.752;2024-01-06T01:05:01;27.53;;;17.70;;
9467;SDS011;4772;52.382;9.752;2024-01-06T01:07:27;29.70;;;19.00;;
9467;SDS011;4772;52.382;9.752;2024-01-06T01:09:53;26.83;;;18.50;;
9467;SDS011;4772;52.382;9.752;2024-01-06T01:12:21;27.77;;;18.03;;
9467;SDS011;4772;52.382;9.752;2024-01-06T01:14:47;27.60;;;18.27;;
9467;SDS011;4772;52.382;9.752;2024-01-06T01:17:13;25.63;;;18.20;;
9467;SDS011;4772;52.382;9.752;2024-01-06T01:19:39;27.83;;;18.37;;
9467;SDS011;4772;52.382;9.752;2024-01-06T01:22:05;24.77;;;17.93;;
9467;SDS011;4772;52.382;9.752;2024-01-06T01:24:31;24.07;;;17.63;;
9467;SDS011;4772;52.382;9.752;2024-01-06T01:26:57;23.07;;;16.83;;
9467;SDS011;4772;52.382;9.752;2024-01-06T01:29:23;23.70;;;17.30;;
9467;SDS011;4772;52.382;9.752;2024-01-06T01:31:49;26.17;;;17.77;;
9467;SDS011;4772;52.382;9.752;2024-01-06T01:34:15;22.87;;;16.83;;
9467;SDS011;4772;52.382;9.752;2024-01-06T01:36:41;27.80;;;17.83;;
9467;SDS011;4772;52.382;9.752;2024-01-06T01:39:07;23.47;;;16.93;;
9467;SDS011;4772;52.382;9.752;2024-01-06T01:41:34;22.60;;;16.10;;
9467;SDS011;4772;52.382;9.752;2024-01-06T01:44:00;23.47;;;17.10;;
9467;SDS011;4772;52.382;9.752;2024-01-06T01:46:27;25.87;;;18.03;;
9467;SDS011;4772;52.382;9.752;2024-01-06T01:48:54;24.70;;;17.57;;
9467;SDS011;4772;52.382;9.752;2024-01-06T01:51:20;24.37;;;17.03;;
9467;SDS011;4772;52.382;9.752;2024-01-06T01:53:46;26.43;;;17.97;;
9467;SDS011;4772;52.382;9.752;2024-01-06T01:56:12;25.67;;;17.53;;
9467;SDS011;4772;52.382;9.752;2024-01-06T01:58:39;28.23;;;17.43;;
9467;SDS011;4772;52.382;9.752;2024-01-06T02:01:05;24.37;;;17.50;;
9467;SDS011;4772;52.382;9.752;2024-01-06T02:03:32;23.77;;;16.90;;
9467;SDS011;4772;52.382;9.752;2024-01-06T02:05:58;26.00;;;17.13;;
9467;SDS011;4772;52.382;9.752;2024-01-06T02:08:24;24.30;;;16.73;;
9467;SDS011;4772;52.382;9.752;2024-01-06T02:10:50;23.07;;;16.57;;
9467;SDS011;4772;52.382;9.752;2024-01-06T02:13:16;27.03;;;18.83;;
9467;SDS011;4772;52.382;9.752;2024-01-06T02:15:42;24.63;;;16.50;;
9467;SDS011;4772;52.382;9.752;2024-01-06T02:18:08;24.40;;;15.90;;
9467;SDS011;4772;52.382;9.752;2024-01-06T02:20:34;25.00;;;15.50;;
9467;SDS011;4772;52.382;9.752;2024-01-06T02:23:00;21.40;;;15.30;;
9467;SDS011;4772;52.382;9.752;2024-01-06T02:25:26;22.50;;;15.60;;
9467;SDS011;4772;52.382;9.752;2024-01-06T02:27:52;24.17;;;16.23;;
9467;SDS011;4772;52.382;9.752;2024-01-06T02:30:18;22.63;;;15.37;;
9467;SDS011;4772;52.382;9.752;2024-01-06T02:32:44;23.87;;;16.47;;
9467;SDS011;4772;52.382;9.752;2024-01-06T02:35:10;21.83;;;14.57;;
9467;SDS011;4772;52.382;9.752;2024-01-06T02:37:36;24.63;;;15.07;;
9467;SDS011;4772;52.382;9.752;2024-01-06T02:40:02;22.27;;;15.37;;
9467;SDS011;4772;52.382;9.752;2024-01-06T02:42:28;24.00;;;15.40;;
9467;SDS011;4772;52.382;9.752;2024-01-06T02:44:54;22.33;;;15.03;;
9467;SDS011;4772;52.382;9.752;2024-01-06T02:47:20;23.40;;;15.83;;
9467;SDS011;4772;52.382;9.752;2024-01-06T02:49:46;22.83;;;15.60;;
9467;SDS011;4772;52.382;9.752;2024-01-06T02:52:12;25.63;;;15.93;;
9467;SDS011;4772;52.382;9.752;2024-01-06T02:54:38;24.50;;;15.90;;
9467;SDS011;4772;52.382;9.752;2024-01-06T02:57:04;23.30;;;15.80;;
9467;SDS011;4772;52.382;9.752;2024-01-06T02:59:30;26.17;;;17.50;;
9467;SDS011;4772;52.382;9.752;2024-01-06T03:01:57;25.97;;;17.27;;
9467;SDS011;4772;52.382;9.752;2024-01-06T03:04:23;24.63;;;17.50;;
9467;SDS011;4772;52.382;9.752;2024-01-06T03:06:49;24.87;;;16.80;;
9467;SDS011;4772;52.382;9.752;2024-01-06T03:09:18;29.03;;;17.93;;
9467;SDS011;4772;52.382;9.752;2024-01-06T03:11:44;25.90;;;16.90;;
9467;SDS011;4772;52.382;9.752;2024-01-06T03:14:10;34.23;;;18.17;;
9467;SDS011;4772;52.382;9.752;2024-01-06T03:16:36;28.07;;;18.33;;
9467;SDS011;4772;52.382;9.752;2024-01-06T03:19:02;26.40;;;18.13;;
9467;SDS011;4772;52.382;9.752;2024-01-06T03:21:28;27.60;;;16.50;;
9467;SDS011;4772;52.382;9.752;2024-01-06T03:23:54;27.27;;;18.23;;
9467;SDS011;4772;52.382;9.752;2024-01-06T03:26:20;25.90;;;15.80;;
9467;SDS011;4772;52.382;9.752;2024-01-06T03:28:49;28.20;;;17.43;;
9467;SDS011;4772;52.382;9.752;2024-01-06T03:31:15;27.70;;;17.33;;
9467;SDS011;4772;52.382;9.752;2024-01-06T03:33:42;28.63;;;17.63;;
9467;SDS011;4772;52.382;9.752;2024-01-06T03:36:08;28.17;;;16.83;;
9467;SDS011;4772;52.382;9.752;2024-01-06T03:38:34;27.20;;;18.10;;
9467;SDS011;4772;52.382;9.752;2024-01-06T03:41:00;26.87;;;16.93;;
9467;SDS011;4772;52.382;9.752;2024-01-06T03:43:26;25.17;;;16.77;;
9467;SDS011;4772;52.382;9.752;2024-01-06T03:45:52;27.87;;;18.63;;
9467;SDS011;4772;52.382;9.752;2024-01-06T03:48:20;28.20;;;19.13;;
9467;SDS011;4772;52.382;9.752;2024-01-06T03:50:46;29.27;;;19.20;;
9467;SDS011;4772;52.382;9.752;2024-01-06T03:53:12;35.93;;;19.80;;
9467;SDS011;4772;52.382;9.752;2024-01-06T03:55:38;29.37;;;19.13;;
9467;SDS011;4772;52.382;9.752;2024-01-06T03:58:04;28.77;;;17.97;;
9467;SDS011;4772;52.382;9.752;2024-01-06T04:00:30;30.87;;;18.90;;
9467;SDS011;4772;52.382;9.752;2024-01-06T04:02:56;28.43;;;18.73;;
9467;SDS011;4772;52.382;9.752;2024-01-06T04:05:22;30.07;;;18.20;;
9467;SDS011;4772;52.382;9.752;2024-01-06T04:07:48;29.13;;;18.63;;
9467;SDS011;4772;52.382;9.752;2024-01-06T04:10:15;29.20;;;17.97;;
9467;SDS011;4772;52.382;9.752;2024-01-06T04:12:41;28.90;;;18.70;;
9467;SDS011;4772;52.382;9.752;2024-01-06T04:15:07;31.10;;;18.53;;
9467;SDS011;4772;52.382;9.752;2024-01-06T04:17:33;29.27;;;18.07;;
9467;SDS011;4772;52.382;9.752;2024-01-06T04:19:59;27.53;;;18.67;;
9467;SDS011;4772;52.382;9.752;2024-01-06T04:22:25;29.50;;;18.70;;
9467;SDS011;4772;52.382;9.752;2024-01-06T04:24:51;27.50;;;17.30;;
9467;SDS011;4772;52.382;9.752;2024-01-06T04:27:17;26.63;;;17.37;;
9467;SDS011;4772;52.382;9.752;2024-01-06T04:29:43;27.70;;;18.43;;
9467;SDS011;4772;52.382;9.752;2024-01-06T04:32:09;28.07;;;18.00;;
9467;SDS011;4772;52.382;9.752;2024-01-06T04:34:35;26.93;;;17.33;;
9467;SDS011;4772;52.382;9.752;2024-01-06T04:37:01;30.73;;;18.63;;
9467;SDS011;4772;52.382;9.752;2024-01-06T04:39:27;29.53;;;19.10;;
9467;SDS011;4772;52.382;9.752;2024-01-06T04:41:53;31.27;;;19.50;;
9467;SDS011;4772;52.382;9.752;2024-01-06T04:44:19;27.77;;;18.30;;
9467;SDS011;4772;52.382;9.752;2024-01-06T04:46:45;27.33;;;17.83;;
9467;SDS011;4772;52.382;9.752;2024-01-06T04:49:11;29.20;;;18.40;;
9467;SDS011;4772;52.382;9.752;2024-01-06T04:51:37;29.50;;;17.97;;
9467;SDS011;4772;52.382;9.752;2024-01-06T04:54:03;28.70;;;17.47;;
9467;SDS011;4772;52.382;9.752;2024-01-06T04:56:29;32.70;;;18.77;;
9467;SDS011;4772;52.382;9.752;2024-01-06T04:58:55;28.37;;;18.13;;
9467;SDS011;4772;52.382;9.752;2024-01-06T05:01:22;28.37;;;17.43;;
9467;SDS011;4772;52.382;9.752;2024-01-06T05:03:48;27.20;;;17.67;;
9467;SDS011;4772;52.382;9.752;2024-01-06T05:06:14;26.63;;;18.00;;
9467;SDS011;4772;52.382;9.752;2024-01-06T05:08:40;28.90;;;16.40;;
9467;SDS011;4772;52.382;9.752;2024-01-06T05:11:10;28.87;;;18.37;;
9467;SDS011;4772;52.382;9.752;2024-01-06T05:13:37;29.43;;;18.07;;
9467;SDS011;4772;52.382;9.752;2024-01-06T05:16:03;28.17;;;17.20;;
9467;SDS011;4772;52.382;9.752;2024-01-06T05:18:29;25.47;;;16.40;;
9467;SDS011;4772;52.382;9.752;2024-01-06T05:20:55;26.63;;;17.63;;
9467;SDS011;4772;52.382;9.752;2024-01-06T05:23:21;27.77;;;17.27;;
9467;SDS011;4772;52.382;9.752;2024-01-06T05:25:47;27.93;;;17.37;;
9467;SDS011;4772;52.382;9.752;2024-01-06T05:28:13;26.87;;;17.77;;
9467;SDS011;4772;52.382;9.752;2024-01-06T05:30:39;27.77;;;17.00;;
9467;SDS011;4772;52.382;9.752;2024-01-06T05:33:05;29.20;;;17.33;;
9467;SDS011;4772;52.382;9.752;2024-01-06T05:35:31;28.63;;;18.53;;
9467;SDS011;4772;52.382;9.752;2024-01-06T05:37:57;28.17;;;17.63;;
9467;SDS011;4772;52.382;9.752;2024-01-06T05:40:23;27.23;;;17.37;;
9467;SDS011;4772;52.382;9.752;2024-01-06T05:42:49;28.63;;;17.30;;
9467;SDS011;4772;52.382;9.752;2024-01-06T05:45:17;27.97;;;17.43;;
9467;SDS011;4772;52.382;9.752;2024-01-06T05:47:43;25.00;;;16.03;;
9467;SDS011;4772;52.382;9.752;2024-01-06T05:50:09;30.37;;;17.97;;
9467;SDS011;4772;52.382;9.752;2024-01-06T05:52:35;28.43;;;18.03;;
9467;SDS011;4772;52.382;9.752;2024-01-06T05:55:01;27.83;;;18.07;;
9467;SDS011;4772;52.382;9.752;2024-01-06T05:57:27;24.93;;;16.17;;
9467;SDS011;4772;52.382;9.752;2024-01-06T05:59:53;25.50;;;16.40;;
9467;SDS011;4772;52.382;9.752;2024-01-06T06:02:19;26.73;;;16.67;;
9467;SDS011;4772;52.382;9.752;2024-01-06T06:04:45;27.03;;;17.00;;
9467;SDS011;4772;52.382;9.752;2024-01-06T06:07:11;29.53;;;17.20;;
9467;SDS011;4772;52.382;9.752;2024-01-06T06:09:37;25.23;;;17.00;;
9467;SDS011;4772;52.382;9.752;2024-01-06T06:12:04;29.13;;;17.93;;
9467;SDS011;4772;52.382;9.752;2024-01-06T06:14:30;29.83;;;17.93;;
9467;SDS011;4772;52.382;9.752;2024-01-06T06:16:56;26.03;;;17.07;;
9467;SDS011;4772;52.382;9.752;2024-01-06T06:19:22;28.63;;;17.67;;
9467;SDS011;4772;52.382;9.752;2024-01-06T06:21:48;30.70;;;18.57;;
9467;SDS011;4772;52.382;9.752;2024-01-06T06:24:14;28.80;;;17.70;;
9467;SDS011;4772;52.382;9.752;2024-01-06T06:26:40;27.60;;;18.00;;
9467;SDS011;4772;52.382;9.752;2024-01-06T06:29:06;29.63;;;17.87;;
9467;SDS011;4772;52.382;9.752;2024-01-06T06:31:32;32.10;;;19.13;;
9467;SDS011;4772;52.382;9.752;2024-01-06T06:33:59;31.63;;;19.23;;
9467;SDS011;4772;52.382;9.752;2024-01-06T06:36:25;30.33;;;17.57;;
9467;SDS011;4772;52.382;9.752;2024-01-06T06:38:51;29.77;;;17.80;;
9467;SDS011;4772;52.382;9.752;2024-01-06T06:41:17;31.33;;;18.03;;
9467;SDS011;4772;52.382;9.752;2024-01-06T06:43:44;33.85;;;22.15;;
9467;SDS011;4772;52.382;9.752;2024-01-06T06:46:10;29.70;;;18.60;;
9467;SDS011;4772;52.382;9.752;2024-01-06T06:48:36;32.10;;;18.73;;
9467;SDS011;4772;52.382;9.752;2024-01-06T06:51:02;31.57;;;17.40;;
9467;SDS011;4772;52.382;9.752;2024-01-06T06:53:28;33.90;;;17.93;;
9467;SDS011;4772;52.382;9.752;2024-01-06T06:55:54;35.03;;;18.80;;
9467;SDS011;4772;52.382;9.752;2024-01-06T06:58:20;32.73;;;19.20;;
9467;SDS011;4772;52.382;9.752;2024-01-06T07:00:46;34.00;;;19.10;;
9467;SDS011;4772;52.382;9.752;2024-01-06T07:03:12;32.27;;;19.03;;
9467;SDS011;4772;52.382;9.752;2024-01-06T07:05:39;32.70;;;19.10;;
9467;SDS011;4772;52.382;9.752;2024-01-06T07:08:05;30.43;;;17.63;;
9467;SDS011;4772;52.382;9.752;2024-01-06T07:10:31;33.47;;;18.70;;
9467;SDS011;4772;52.382;9.752;2024-01-06T07:12:57;34.27;;;19.63;;
9467;SDS011;4772;52.382;9.752;2024-01-06T07:15:23;33.80;;;19.47;;
9467;SDS011;4772;52.382;9.752;2024-01-06T07:17:49;38.30;;;20.00;;
9467;SDS011;4772;52.382;9.752;2024-01-06T07:20:15;31.87;;;18.37;;
9467;SDS011;4772;52.382;9.752;2024-01-06T07:22:41;31.53;;;18.90;;
9467;SDS011;4772;52.382;9.752;2024-01-06T07:25:07;35.60;;;20.47;;
9467;SDS011;4772;52.382;9.752;2024-01-06T07:27:33;33.63;;;19.60;;
9467;SDS011;4772;52.382;9.752;2024-01-06T07:29:59;33.17;;;19.67;;
9467;SDS011;4772;52.382;9.752;2024-01-06T07:32:25;31.80;;;19.50;;
9467;SDS011;4772;52.382;9.752;2024-01-06T07:34:51;35.03;;;20.23;;
9467;SDS011;4772;52.382;9.752;2024-01-06T07:37:17;32.83;;;18.77;;
9467;SDS011;4772;52.382;9.752;2024-01-06T07:39:43;35.60;;;19.70;;
9467;SDS011;4772;52.382;9.752;2024-01-06T07:42:09;34.63;;;20.20;;
9467;SDS011;4772;52.382;9.752;2024-01-06T07:44:35;35.67;;;20.80;;
9467;SDS011;4772;52.382;9.752;2024-01-06T07:47:01;37.03;;;20.87;;
9467;SDS011;4772;52.382;9.752;2024-01-06T07:49:30;33.67;;;20.10;;
9467;SDS011;4772;52.382;9.752;2024-01-06T07:51:56;34.27;;;20.33;;
9467;SDS011;4772;52.382;9.752;2024-01-06T07:54:22;34.67;;;19.87;;
9467;SDS011;4772;52.382;9.752;2024-01-06T07:56:48;37.17;;;21.03;;
9467;SDS011;4772;52.382;9.752;2024-01-06T07:59:14;35.53;;;21.07;;
9467;SDS011;4772;52.382;9.752;2024-01-06T08:01:40;36.67;;;20.90;;
9467;SDS011;4772;52.382;9.752;2024-01-06T08:04:08;38.13;;;20.87;;
9467;SDS011;4772;52.382;9.752;2024-01-06T08:06:34;38.53;;;20.37;;
9467;SDS011;4772;52.382;9.752;2024-01-06T08:09:00;37.63;;;21.40;;
9467;SDS011;4772;52.382;9.752;2024-01-06T08:11:26;39.00;;;21.37;;
9467;SDS011;4772;52.382;9.752;2024-01-06T08:13:52;40.33;;;19.93;;
9467;SDS011;4772;52.382;9.752;2024-01-06T08:16:18;37.43;;;20.00;;
9467;SDS011;4772;52.382;9.752;2024-01-06T08:18:44;36.13;;;20.17;;
9467;SDS011;4772;52.382;9.752;2024-01-06T08:21:10;38.27;;;20.20;;
9467;SDS011;4772;52.382;9.752;2024-01-06T08:23:36;35.87;;;19.80;;
9467;SDS011;4772;52.382;9.752;2024-01-06T08:26:03;36.50;;;20.00;;
9467;SDS011;4772;52.382;9.752;2024-01-06T08:28:29;38.43;;;19.53;;
9467;SDS011;4772;52.382;9.752;2024-01-06T08:30:55;34.97;;;18.83;;
9467;SDS011;4772;52.382;9.752;2024-01-06T08:33:21;34.87;;;19.20;;
9467;SDS011;4772;52.382;9.752;2024-01-06T08:35:47;33.17;;;19.00;;
9467;SDS011;4772;52.382;9.752;2024-01-06T08:38:13;36.67;;;20.00;;
9467;SDS011;4772;52.382;9.752;2024-01-06T08:40:39;31.90;;;18.43;;
9467;SDS011;4772;52.382;9.752;2024-01-06T08:43:05;32.27;;;18.77;;
9467;SDS011;4772;52.382;9.752;2024-01-06T08:45:31;33.97;;;20.23;;
9467;SDS011;4772;52.382;9.752;2024-01-06T08:47:57;32.37;;;17.83;;
9467;SDS011;4772;52.382;9.752;2024-01-06T08:50:23;33.17;;;18.97;;
9467;SDS011;4772;52.382;9.752;2024-01-06T08:52:49;30.63;;;18.80;;
9467;SDS011;4772;52.382;9.752;2024-01-06T08:55:15;34.13;;;18.53;;
9467;SDS011;4772;52.382;9.752;2024-01-06T08:57:41;31.13;;;18.40;;
9467;SDS011;4772;52.382;9.752;2024-01-06T09:00:07;28.37;;;16.87;;
9467;SDS011;4772;52.382;9.752;2024-01-06T09:02:35;30.17;;;16.60;;
9467;SDS011;4772;52.382;9.752;2024-01-06T09:05:01;30.87;;;17.00;;
9467;SDS011;4772;52.382;9.752;2024-01-06T09:07:27;26.83;;;16.23;;
9467;SDS011;4772;52.382;9.752;2024-01-06T09:09:53;30.77;;;17.33;;
9467;SDS011;4772;52.382;9.752;2024-01-06T09:12:19;35.67;;;17.33;;
9467;SDS011;4772;52.382;9.752;2024-01-06T09:14:46;28.37;;;16.53;;
9467;SDS011;4772;52.382;9.752;2024-01-06T09:17:12;29.43;;;16.93;;
9467;SDS011;4772;52.382;9.752;2024-01-06T09:19:39;29.90;;;16.90;;
9467;SDS011;4772;52.382;9.752;2024-01-06T09:22:05;27.00;;;15.93;;
9467;SDS011;4772;52.382;9.752;2024-01-06T09:24:30;29.07;;;15.80;;
9467;SDS011;4772;52.382;9.752;2024-01-06T09:26:58;24.43;;;14.83;;
9467;SDS011;4772;52.382;9.752;2024-01-06T09:29:24;25.40;;;16.13;;
9467;SDS011;4772;52.382;9.752;2024-01-06T09:31:50;25.87;;;15.73;;
9467;SDS011;4772;52.382;9.752;2024-01-06T09:34:17;38.47;;;19.90;;
9467;SDS011;4772;52.382;9.752;2024-01-06T09:36:43;30.07;;;17.80;;
9467;SDS011;4772;52.382;9.752;2024-01-06T09:39:10;24.27;;;15.43;;
9467;SDS011;4772;52.382;9.752;2024-01-06T09:41:36;24.30;;;15.20;;
9467;SDS011;4772;52.382;9.752;2024-01-06T09:44:02;25.73;;;15.17;;
9467;SDS011;4772;52.382;9.752;2024-01-06T09:46:28;26.83;;;15.50;;
9467;SDS011;4772;52.382;9.752;2024-01-06T09:48:55;24.23;;;15.53;;
9467;SDS011;4772;52.382;9.752;2024-01-06T09:51:22;24.60;;;16.13;;
9467;SDS011;4772;52.382;9.752;2024-01-06T09:56:21;26.17;;;16.37;;
9467;SDS011;4772;52.382;9.752;2024-01-06T09:58:47;26.83;;;16.00;;
9467;SDS011;4772;52.382;9.752;2024-01-06T10:01:13;23.80;;;14.83;;
9467;SDS011;4772;52.382;9.752;2024-01-06T10:03:40;23.03;;;14.73;;
9467;SDS011;4772;52.382;9.752;2024-01-06T10:06:06;20.90;;;13.70;;
9467;SDS011;4772;52.382;9.752;2024-01-06T10:08:34;21.73;;;13.47;;
9467;SDS011;4772;52.382;9.752;2024-01-06T10:11:00;19.30;;;13.67;;
9467;SDS011;4772;52.382;9.752;2024-01-06T10:13:26;22.30;;;14.47;;
9467;SDS011;4772;52.382;9.752;2024-01-06T10:15:54;20.87;;;13.83;;
9467;SDS011;4772;52.382;9.752;2024-01-06T10:18:20;21.83;;;13.73;;
9467;SDS011;4772;52.382;9.752;2024-01-06T10:20:46;22.50;;;14.47;;
9467;SDS011;4772;52.382;9.752;2024-01-06T10:23:12;24.27;;;14.07;;
9467;SDS011;4772;52.382;9.752;2024-01-06T10:25:38;19.17;;;13.17;;
9467;SDS011;4772;52.382;9.752;2024-01-06T10:28:10;21.90;;;14.27;;
9467;SDS011;4772;52.382;9.752;2024-01-06T10:30:37;21.47;;;13.10;;
9467;SDS011;4772;52.382;9.752;2024-01-06T10:33:07;17.43;;;12.20;;
9467;SDS011;4772;52.382;9.752;2024-01-06T10:35:34;20.43;;;13.00;;
9467;SDS011;4772;52.382;9.752;2024-01-06T10:38:01;18.43;;;12.67;;
9467;SDS011;4772;52.382;9.752;2024-01-06T10:40:28;22.43;;;12.53;;
9467;SDS011;4772;52.382;9.752;2024-01-06T10:42:54;19.57;;;11.67;;
9467;SDS011;4772;52.382;9.752;2024-01-06T10:45:24;20.30;;;11.80;;
9467;SDS011;4772;52.382;9.752;2024-01-06T10:47:50;20.90;;;13.13;;
9467;SDS011;4772;52.382;9.752;2024-01-06T10:50:19;20.07;;;12.80;;
9467;SDS011;4772;52.382;9.752;2024-01-06T10:52:46;20.73;;;13.57;;
9467;SDS011;4772;52.382;9.752;2024-01-06T10:55:13;23.53;;;13.87;;
9467;SDS011;4772;52.382;9.752;2024-01-06T10:57:43;23.50;;;14.07;;
9467;SDS011;4772;52.382;9.752;2024-01-06T11:00:12;23.67;;;14.63;;
9467;SDS011;4772;52.382;9.752;2024-01-06T11:02:38;24.90;;;14.63;;
9467;SDS011;4772;52.382;9.752;2024-01-06T11:05:05;26.57;;;14.37;;
9467;SDS011;4772;52.382;9.752;2024-01-06T11:07:35;25.40;;;14.23;;
9467;SDS011;4772;52.382;9.752;2024-01-06T11:10:12;25.50;;;14.60;;
9467;SDS011;4772;52.382;9.752;2024-01-06T11:12:41;26.27;;;15.27;;
9467;SDS011;4772;52.382;9.752;2024-01-06T11:15:07;24.80;;;15.63;;
9467;SDS011;4772;52.382;9.752;2024-01-06T11:17:49;26.60;;;15.60;;
9467;SDS011;4772;52.382;9.752;2024-01-06T11:20:22;25.10;;;15.23;;
9467;SDS011;4772;52.382;9.752;2024-01-06T11:22:48;24.30;;;14.10;;
9467;SDS011;4772;52.382;9.752;2024-01-06T11:25:21;27.17;;;15.70;;
9467;SDS011;4772;52.382;9.752;2024-01-06T11:27:48;26.17;;;15.50;;
9467;SDS011;4772;52.382;9.752;2024-01-06T11:32:47;25.93;;;15.13;;
9467;SDS011;4772;52.382;9.752;2024-01-06T11:35:14;24.13;;;14.53;;
9467;SDS011;4772;52.382;9.752;2024-01-06T11:42:42;25.53;;;14.03;;
9467;SDS011;4772;52.382;9.752;2024-01-06T11:45:08;22.17;;;14.17;;
9467;SDS011;4772;52.382;9.752;2024-01-06T11:47:34;24.23;;;14.97;;
9467;SDS011;4772;52.382;9.752;2024-01-06T11:50:01;22.20;;;13.83;;
9467;SDS011;4772;52.382;9.752;2024-01-06T11:52:34;22.17;;;14.00;;
9467;SDS011;4772;52.382;9.752;2024-01-06T11:55:00;23.87;;;14.40;;
9467;SDS011;4772;52.382;9.752;2024-01-06T11:57:29;21.77;;;14.13;;
9467;SDS011;4772;52.382;9.752;2024-01-06T11:59:55;24.00;;;13.90;;
9467;SDS011;4772;52.382;9.752;2024-01-06T12:02:21;23.30;;;13.20;;
9467;SDS011;4772;52.382;9.752;2024-01-06T12:04:51;21.87;;;13.50;;
9467;SDS011;4772;52.382;9.752;2024-01-06T12:07:17;20.03;;;13.57;;
9467;SDS011;4772;52.382;9.752;2024-01-06T12:09:44;20.40;;;12.87;;
9467;SDS011;4772;52.382;9.752;2024-01-06T12:12:10;21.57;;;13.50;;
9467;SDS011;4772;52.382;9.752;2024-01-06T12:14:40;22.73;;;13.90;;
9467;SDS011;4772;52.382;9.752;2024-01-06T12:17:07;21.37;;;13.17;;
9467;SDS011;4772;52.382;9.752;2024-01-06T12:19:33;21.97;;;13.53;;
9467;SDS011;4772;52.382;9.752;2024-01-06T12:21:59;22.30;;;13.00;;
9467;SDS011;4772;52.382;9.752;2024-01-06T12:24:27;24.13;;;13.47;;
9467;SDS011;4772;52.382;9.752;2024-01-06T12:26:55;21.77;;;13.47;;
9467;SDS011;4772;52.382;9.752;2024-01-06T12:29:21;22.20;;;13.43;;
9467;SDS011;4772;52.382;9.752;2024-01-06T12:31:47;22.00;;;13.53;;
9467;SDS011;4772;52.382;9.752;2024-01-06T12:34:13;24.00;;;14.23;;
9467;SDS011;4772;52.382;9.752;2024-01-06T12:36:39;25.07;;;15.37;;
9467;SDS011;4772;52.382;9.752;2024-01-06T12:39:06;24.17;;;14.10;;
9467;SDS011;4772;52.382;9.752;2024-01-06T12:41:41;25.97;;;14.07;;
9467;SDS011;4772;52.382;9.752;2024-01-06T12:44:08;23.40;;;14.43;;
9467;SDS011;4772;52.382;9.752;2024-01-06T12:46:35;21.87;;;13.93;;
9467;SDS011;4772;52.382;9.752;2024-01-06T12:49:01;22.67;;;14.80;;
9467;SDS011;4772;52.382;9.752;2024-01-06T12:51:27;23.80;;;14.63;;
9467;SDS011;4772;52.382;9.752;2024-01-06T12:53:53;21.53;;;14.00;;
9467;SDS011;4772;52.382;9.752;2024-01-06T12:56:19;23.93;;;15.33;;
9467;SDS011;4772;52.382;9.752;2024-01-06T12:58:45;23.97;;;14.27;;
9467;SDS011;4772;52.382;9.752;2024-01-06T13:01:11;26.07;;;15.73;;
9467;SDS011;4772;52.382;9.752;2024-01-06T13:03:37;21.53;;;13.80;;
9467;SDS011;4772;52.382;9.752;2024-01-06T13:06:04;25.60;;;14.70;;
9467;SDS011;4772;52.382;9.752;2024-01-06T13:08:30;25.83;;;14.20;;
9467;SDS011;4772;52.382;9.752;2024-01-06T13:10:56;25.17;;;14.37;;
9467;SDS011;4772;52.382;9.752;2024-01-06T13:13:22;24.17;;;14.33;;
9467;SDS011;4772;52.382;9.752;2024-01-06T13:15:48;25.03;;;13.87;;
9467;SDS011;4772;52.382;9.752;2024-01-06T13:18:14;25.07;;;14.47;;
9467;SDS011;4772;52.382;9.752;2024-01-06T13:20:43;22.97;;;14.60;;
9467;SDS011;4772;52.382;9.752;2024-01-06T13:23:10;26.63;;;15.20;;
9467;SDS011;4772;52.382;9.752;2024-01-06T13:25:37;26.13;;;15.27;;
9467;SDS011;4772;52.382;9.752;2024-01-06T13:28:04;28.33;;;15.83;;
9467;SDS011;4772;52.382;9.752;2024-01-06T13:30:31;26.40;;;15.13;;
9467;SDS011;4772;52.382;9.752;2024-01-06T13:32:57;29.97;;;16.60;;
9467;SDS011;4772;52.382;9.752;2024-01-06T13:35:23;31.53;;;17.40;;
9467;SDS011;4772;52.382;9.752;2024-01-06T13:37:54;31.00;;;16.97;;
9467;SDS011;4772;52.382;9.752;2024-01-06T13:40:23;29.03;;;15.80;;
9467;SDS011;4772;52.382;9.752;2024-01-06T13:42:50;27.67;;;16.17;;
9467;SDS011;4772;52.382;9.752;2024-01-06T13:45:17;29.87;;;16.53;;
9467;SDS011;4772;52.382;9.752;2024-01-06T13:47:43;30.03;;;16.23;;
9467;SDS011;4772;52.382;9.752;2024-01-06T13:50:13;25.10;;;14.40;;
9467;SDS011;4772;52.382;9.752;2024-01-06T13:52:39;26.60;;;14.97;;
9467;SDS011;4772;52.382;9.752;2024-01-06T13:55:06;24.93;;;14.53;;
9467;SDS011;4772;52.382;9.752;2024-01-06T13:57:33;24.93;;;14.47;;
9467;SDS011;4772;52.382;9.752;2024-01-06T13:59:59;26.67;;;14.63;;
9467;SDS011;4772;52.382;9.752;2024-01-06T14:02:25;23.57;;;14.07;;
9467;SDS011;4772;52.382;9.752;2024-01-06T14:04:51;25.43;;;14.43;;
9467;SDS011;4772;52.382;9.752;2024-01-06T14:07:17;25.33;;;13.33;;
9467;SDS011;4772;52.382;9.752;2024-01-06T14:09:47;23.00;;;14.00;;
9467;SDS011;4772;52.382;9.752;2024-01-06T14:12:13;23.37;;;13.30;;
9467;SDS011;4772;52.382;9.752;2024-01-06T14:14:40;23.63;;;13.30;;
9467;SDS011;4772;52.382;9.752;2024-01-06T14:17:09;25.07;;;14.17;;
9467;SDS011;4772;52.382;9.752;2024-01-06T14:19:35;21.43;;;13.30;;
9467;SDS011;4772;52.382;9.752;2024-01-06T14:22:00;23.60;;;13.63;;
9467;SDS011;4772;52.382;9.752;2024-01-06T14:24:29;21.97;;;13.40;;
9467;SDS011;4772;52.382;9.752;2024-01-06T14:26:55;25.73;;;15.30;;
9467;SDS011;4772;52.382;9.752;2024-01-06T14:29:21;21.23;;;13.80;;
9467;SDS011;4772;52.382;9.752;2024-01-06T14:31:47;23.53;;;14.97;;
9467;SDS011;4772;52.382;9.752;2024-01-06T14:34:13;25.30;;;15.13;;
9467;SDS011;4772;52.382;9.752;2024-01-06T14:36:40;26.90;;;16.53;;
9467;SDS011;4772;52.382;9.752;2024-01-06T14:39:15;29.60;;;16.60;;
9467;SDS011;4772;52.382;9.752;2024-01-06T14:41:41;26.80;;;16.37;;
9467;SDS011;4772;52.382;9.752;2024-01-06T14:44:07;29.53;;;15.47;;
9467;SDS011;4772;52.382;9.752;2024-01-06T14:46:33;25.20;;;16.20;;
9467;SDS011;4772;52.382;9.752;2024-01-06T14:49:01;26.03;;;15.73;;
9467;SDS011;4772;52.382;9.752;2024-01-06T14:51:28;28.73;;;16.83;;
9467;SDS011;4772;52.382;9.752;2024-01-06T14:53:54;22.03;;;13.27;;